메인 페이지
METAR-TAF:

METAR-TAF

공항 :

실비오 페티로시 국제공항

아순시온, 파라과이

위도: 25-16S, 경도: 057-38W, 고도: 101m

현재 날씨관측

예보는 47분 전, 16:00시(UTC)에 발표되었습니다.
5kt북북동풍과 동남동풍을 오가는
온도 22°C
습도 50%
기압 1023 hPa
시정 10km 이상
1500m 미만 상공 구름 및 적란운 없음

METAR: SGAS 301600Z 08005KT 020V120 CAVOK 22/11 Q1023

시각: 12:47 (16:47 UTC)

예보

예보는 6 시간 16분 전, 10:31시(UTC)에 발표되었습니다.
예보 대상 시간: 30일 12시부터 31일 12시까지 (UTC)
kt
시정: 9000m
전환 중
30일 14시부터 30일 17시까지 (UTC)
여러 방향의 바람 4kt
시정 10km 이상
1500m 미만 상공 구름 및 적란운 없음
전환 중
30일 18시부터 30일 22시까지 (UTC)
남남서4kt
시정 10km 이상
고도 2700ft 상공 구름 보통
전환 중
31일 00시부터 31일 05시까지 (UTC)
남남동4kt
시정 10km 이상
1500m 미만 상공 구름 및 적란운 없음

TAF: SGAS 301031Z 3012/3112 00000KT 9000 NSC TX20/3018Z TN10/3109Z BECMG 3014/3017 VRB04KT CAVOK BECMG 3018/3022 21004KT 9999 SCT027 BECMG 3100/3105 15004KT CAVOK

4,000개 이상의 공항 관측 자료 및 예보 (METAR 및 TAF 보고).

지도상에서 검색 가능한 기상관측소가 노란 점과 빨간 점으로 표시되어 있습니다.

기상관측소 명을 보려면 표시 위로 마우스를 이동하세요.

날씨 관측과 예보를 보려면 클릭하세요.

지도 변경 : 확대하려면 엑스 표시가 있는 녹색 버튼, 축소하려면 빼기 표시가 있는 녹색 버튼, 다음 페이지의 지도를 보려면 녹색 화살표를 클릭하세요.


METAR-TAF: